createdAt,value
2023-03-21T00:01:33.377Z,11.70
2023-03-21T00:04:01.205Z,11.70
2023-03-21T00:06:29.169Z,11.70
2023-03-21T00:08:57.097Z,11.70
2023-03-21T00:11:25.622Z,11.70
2023-03-21T00:13:53.855Z,11.70
2023-03-21T00:16:30.327Z,11.70
2023-03-21T00:19:03.838Z,11.70
2023-03-21T00:21:48.777Z,11.70
2023-03-21T00:24:22.742Z,11.70
2023-03-21T00:26:52.058Z,11.70
2023-03-21T00:29:21.142Z,11.70
2023-03-21T00:31:49.171Z,11.70
2023-03-21T00:34:22.541Z,11.70
2023-03-21T00:37:02.118Z,11.70
2023-03-21T00:39:30.279Z,11.70
2023-03-21T00:41:58.410Z,11.60
2023-03-21T00:44:26.247Z,11.60
2023-03-21T00:47:06.521Z,11.60
2023-03-21T00:49:36.069Z,11.60
2023-03-21T00:52:38.107Z,11.50
2023-03-21T00:54:55.350Z,11.60
2023-03-21T00:57:37.592Z,11.60
2023-03-21T01:00:10.897Z,11.60
2023-03-21T01:02:43.476Z,11.60
2023-03-21T01:05:13.184Z,11.60
2023-03-21T01:07:40.984Z,11.60
2023-03-21T01:10:11.316Z,11.50
2023-03-21T01:12:39.285Z,11.50
2023-03-21T01:15:07.642Z,11.50
2023-03-21T01:17:35.768Z,11.50
2023-03-21T01:20:06.761Z,11.50
2023-03-21T01:22:34.576Z,11.50
2023-03-21T01:25:19.102Z,11.50
2023-03-21T01:27:50.740Z,11.50
2023-03-21T01:30:22.757Z,11.50
2023-03-21T01:32:52.581Z,11.50
2023-03-21T01:35:20.635Z,11.40
2023-03-21T01:37:49.453Z,11.40
2023-03-21T01:40:21.594Z,11.50
2023-03-21T01:42:51.877Z,11.50
2023-03-21T01:45:59.335Z,11.50
2023-03-21T01:48:45.472Z,11.40
2023-03-21T01:51:14.252Z,11.40
2023-03-21T01:53:56.579Z,11.40
2023-03-21T01:56:32.352Z,11.40
2023-03-21T01:59:21.978Z,11.40
2023-03-21T02:02:27.188Z,11.40
2023-03-21T02:05:28.522Z,11.40
2023-03-21T02:07:57.428Z,11.40
2023-03-21T02:10:28.282Z,11.40
2023-03-21T02:13:10.321Z,11.40
2023-03-21T02:15:49.526Z,11.40
2023-03-21T02:18:52.556Z,11.40
2023-03-21T02:21:50.989Z,11.40
2023-03-21T02:24:48.889Z,11.40
2023-03-21T02:27:25.351Z,11.40
2023-03-21T02:30:29.481Z,11.40
2023-03-21T02:33:05.883Z,11.40
2023-03-21T02:36:03.113Z,11.50
2023-03-21T02:38:43.973Z,11.40
2023-03-21T02:41:40.349Z,11.50
2023-03-21T02:44:24.920Z,11.50
2023-03-21T02:47:06.429Z,11.50
2023-03-21T02:49:59.239Z,11.40
2023-03-21T02:52:39.133Z,11.50
2023-03-21T02:55:20.343Z,11.50
2023-03-21T02:58:06.907Z,11.50
2023-03-21T03:00:45.357Z,11.50
2023-03-21T03:03:33.673Z,11.50
2023-03-21T03:06:20.082Z,11.50
2023-03-21T03:09:04.900Z,11.40
2023-03-21T03:11:46.684Z,11.40
2023-03-21T03:15:00.359Z,11.40
2023-03-21T03:17:45.196Z,11.40
2023-03-21T03:20:40.010Z,11.40
2023-03-21T03:23:35.942Z,11.40
2023-03-21T03:26:27.751Z,11.30
2023-03-21T03:29:07.445Z,11.30
2023-03-21T03:31:42.369Z,11.40
2023-03-21T03:34:21.411Z,11.30
2023-03-21T03:36:56.843Z,11.40
2023-03-21T03:39:36.668Z,11.30
2023-03-21T03:42:28.034Z,11.30
2023-03-21T03:45:07.267Z,11.30
2023-03-21T03:48:04.715Z,11.30
2023-03-21T03:50:44.899Z,11.30
2023-03-21T03:53:37.618Z,11.30
2023-03-21T03:56:08.595Z,11.30
2023-03-21T03:58:45.693Z,11.30
2023-03-21T04:01:18.426Z,11.30
2023-03-21T04:04:03.597Z,11.20
2023-03-21T04:06:38.967Z,11.20
2023-03-21T04:09:20.477Z,11.20
2023-03-21T04:11:51.968Z,11.20
2023-03-21T04:14:22.241Z,11.20
2023-03-21T04:16:52.891Z,11.20
2023-03-21T04:19:22.075Z,11.10
2023-03-21T04:21:51.130Z,11.10
2023-03-21T04:24:21.027Z,11.10
2023-03-21T04:26:54.886Z,11.10
2023-03-21T04:29:45.038Z,11.10
2023-03-21T04:32:28.921Z,11.10
2023-03-21T04:35:12.603Z,11.10
2023-03-21T04:37:42.894Z,11.10
2023-03-21T04:40:18.577Z,11.10
2023-03-21T04:42:49.427Z,11.10
2023-03-21T04:45:19.373Z,11.00
2023-03-21T04:47:48.690Z,11.00
2023-03-21T04:50:17.504Z,11.00
2023-03-21T04:52:45.824Z,11.00
2023-03-21T04:55:15.718Z,11.00
2023-03-21T04:57:47.740Z,11.00
2023-03-21T05:00:18.046Z,11.10
2023-03-21T05:02:47.562Z,11.10
2023-03-21T05:05:16.005Z,11.10
2023-03-21T05:07:44.526Z,11.00
2023-03-21T05:10:15.160Z,11.00
2023-03-21T05:12:43.733Z,11.00
2023-03-21T05:15:13.046Z,11.00
2023-03-21T05:17:43.230Z,11.00
2023-03-21T05:20:11.992Z,11.00
2023-03-21T05:22:41.555Z,11.00
2023-03-21T05:25:14.098Z,10.90
2023-03-21T05:28:02.686Z,10.90
2023-03-21T05:30:33.436Z,10.90
2023-03-21T05:33:03.241Z,10.90
2023-03-21T05:35:32.005Z,10.80
2023-03-21T05:38:06.237Z,10.80
2023-03-21T05:40:49.804Z,10.70
2023-03-21T05:43:19.029Z,10.70
2023-03-21T05:45:48.824Z,10.70
2023-03-21T05:48:19.347Z,10.70
2023-03-21T05:51:04.124Z,10.70
2023-03-21T05:53:32.658Z,10.70
2023-03-21T05:56:00.929Z,10.70
2023-03-21T05:58:45.955Z,10.80
2023-03-21T06:01:14.603Z,10.80
2023-03-21T06:03:47.858Z,11.00
2023-03-21T06:06:23.435Z,11.10
2023-03-21T06:08:56.840Z,11.20
2023-03-21T06:11:29.433Z,11.30
2023-03-21T06:14:18.330Z,11.50
2023-03-21T06:16:53.217Z,11.70
2023-03-21T06:19:22.586Z,11.80
2023-03-21T06:22:08.164Z,11.90
2023-03-21T06:24:39.997Z,12.10
2023-03-21T06:27:11.481Z,12.20
2023-03-21T06:29:50.845Z,12.30
2023-03-21T06:32:19.577Z,12.50
2023-03-21T06:34:49.874Z,12.60
2023-03-21T06:37:19.102Z,12.70
2023-03-21T06:39:47.550Z,12.90
2023-03-21T06:42:15.928Z,13.00
2023-03-21T06:44:47.594Z,13.20
2023-03-21T06:47:17.457Z,13.20
2023-03-21T06:49:47.471Z,13.30
2023-03-21T06:52:16.202Z,13.50
2023-03-21T06:54:44.404Z,13.50
2023-03-21T06:57:15.318Z,13.60
2023-03-21T06:59:43.638Z,13.70
2023-03-21T07:02:16.437Z,13.80
2023-03-21T07:05:08.937Z,13.90
2023-03-21T07:07:38.250Z,14.00
2023-03-21T07:10:07.584Z,14.10
2023-03-21T07:12:44.763Z,14.20
2023-03-21T07:15:24.979Z,14.30
2023-03-21T07:17:53.577Z,14.40
2023-03-21T07:20:21.553Z,14.50
2023-03-21T07:22:49.999Z,14.60
2023-03-21T07:25:18.768Z,14.70
2023-03-21T07:27:47.803Z,14.80
2023-03-21T07:30:16.989Z,14.80
2023-03-21T07:32:46.170Z,15.00
2023-03-21T07:35:16.539Z,15.10
2023-03-21T07:37:44.783Z,15.20
2023-03-21T07:40:16.631Z,15.30
2023-03-21T07:42:46.005Z,15.50
2023-03-21T07:45:21.612Z,15.60
2023-03-21T07:47:49.848Z,15.80
2023-03-21T07:50:18.528Z,15.90
2023-03-21T07:52:47.072Z,16.00
2023-03-21T07:55:14.953Z,16.20
2023-03-21T07:57:43.485Z,16.30
2023-03-21T08:00:13.107Z,16.30
2023-03-21T08:02:41.373Z,16.40
2023-03-21T08:05:11.865Z,16.60
2023-03-21T08:07:39.991Z,16.80
2023-03-21T08:10:09.078Z,17.00
2023-03-21T08:12:37.288Z,17.10
2023-03-21T08:15:08.952Z,17.30
2023-03-21T08:17:38.699Z,17.40
2023-03-21T08:20:09.401Z,17.50
2023-03-21T08:22:38.595Z,17.60
2023-03-21T08:25:08.518Z,17.70
2023-03-21T08:27:36.771Z,17.80
2023-03-21T08:30:05.658Z,18.00
2023-03-21T08:32:34.246Z,17.90
2023-03-21T08:35:02.896Z,17.90
2023-03-21T08:37:31.597Z,18.10
2023-03-21T08:39:59.593Z,18.30
2023-03-21T08:42:27.608Z,18.60
2023-03-21T08:44:55.689Z,18.50
2023-03-21T08:47:23.681Z,18.70
2023-03-21T08:49:51.865Z,18.80
2023-03-21T08:52:19.888Z,18.80
2023-03-21T08:54:49.102Z,18.60
2023-03-21T08:57:17.392Z,18.70
2023-03-21T08:59:45.412Z,18.80
2023-03-21T09:02:18.095Z,19.10
2023-03-21T09:04:46.464Z,19.20
2023-03-21T09:07:15.535Z,19.20
2023-03-21T09:09:45.937Z,19.40
2023-03-21T09:12:16.585Z,19.70
2023-03-21T09:14:44.528Z,19.90
2023-03-21T09:17:12.499Z,20.10
2023-03-21T09:19:42.067Z,20.10
2023-03-21T09:22:17.789Z,20.40
2023-03-21T09:24:48.112Z,20.40
2023-03-21T09:27:18.705Z,20.70
2023-03-21T09:29:47.290Z,21.00
2023-03-21T09:32:15.772Z,20.70
2023-03-21T09:34:45.197Z,20.10
2023-03-21T09:37:16.291Z,20.10
2023-03-21T09:39:45.579Z,19.90
2023-03-21T09:42:32.125Z,20.00
2023-03-21T09:45:09.713Z,20.10
2023-03-21T09:47:54.003Z,20.20
2023-03-21T09:50:43.101Z,20.10
2023-03-21T09:53:24.856Z,19.80
2023-03-21T09:55:54.893Z,19.80
2023-03-21T09:58:34.862Z,19.70
2023-03-21T10:01:42.051Z,19.50
2023-03-21T10:04:17.071Z,19.40
2023-03-21T10:06:52.666Z,19.20
2023-03-21T10:09:24.962Z,19.20
2023-03-21T10:12:12.258Z,19.00
2023-03-21T10:14:44.731Z,18.80
2023-03-21T10:17:21.945Z,18.60
2023-03-21T10:20:18.462Z,18.40
2023-03-21T10:22:48.324Z,18.30
2023-03-21T10:25:20.072Z,18.20
2023-03-21T10:27:49.288Z,17.90
2023-03-21T10:30:28.848Z,17.80
2023-03-21T10:33:06.186Z,17.70
2023-03-21T10:35:37.734Z,17.50
2023-03-21T10:38:08.115Z,17.40
2023-03-21T10:40:36.128Z,17.30
2023-03-21T10:43:20.340Z,17.20
2023-03-21T10:45:49.593Z,17.00
2023-03-21T10:48:17.531Z,16.70
2023-03-21T10:50:51.182Z,16.60
2023-03-21T10:53:36.055Z,16.50
2023-03-21T10:56:09.770Z,16.50
2023-03-21T10:58:43.911Z,16.60
2023-03-21T11:01:16.382Z,16.60
2023-03-21T11:04:07.970Z,16.60
2023-03-21T11:06:40.695Z,16.60
2023-03-21T11:09:22.018Z,16.70
2023-03-21T11:11:53.220Z,16.80
2023-03-21T11:14:48.398Z,17.00
2023-03-21T11:17:19.569Z,17.50
2023-03-21T11:20:00.597Z,18.00
2023-03-21T11:22:42.932Z,18.70
2023-03-21T11:25:30.908Z,19.90
2023-03-21T11:27:59.838Z,20.40
2023-03-21T11:30:28.920Z,20.60
2023-03-21T11:33:06.742Z,20.60
2023-03-21T11:35:39.772Z,20.70
2023-03-21T11:38:23.711Z,20.80
2023-03-21T11:40:58.793Z,20.90
2023-03-21T11:43:30.328Z,20.90
2023-03-21T11:46:06.110Z,20.70
2023-03-21T11:48:49.292Z,20.30
2023-03-21T11:51:32.359Z,20.00
2023-03-21T11:54:14.921Z,20.00
2023-03-21T11:56:54.431Z,20.20
2023-03-21T11:59:48.987Z,20.10
2023-03-21T12:02:34.212Z,20.00
2023-03-21T12:05:17.237Z,19.90
2023-03-21T12:08:05.856Z,19.90
2023-03-21T12:10:54.266Z,19.80
2023-03-21T12:13:52.696Z,19.80
2023-03-21T12:16:33.985Z,19.70
2023-03-21T12:19:33.052Z,19.60
2023-03-21T12:22:18.112Z,19.40
2023-03-21T12:25:01.742Z,19.20
2023-03-21T12:27:38.918Z,19.00
2023-03-21T12:30:43.124Z,18.90
2023-03-21T12:33:27.609Z,18.80
2023-03-21T12:36:00.920Z,18.70
2023-03-21T12:38:51.959Z,18.70
2023-03-21T12:41:54.971Z,18.70
2023-03-21T12:44:26.761Z,18.80
2023-03-21T12:46:57.498Z,18.80
2023-03-21T12:49:34.851Z,18.80
2023-03-21T12:52:08.291Z,18.70
2023-03-21T12:54:43.399Z,18.30
2023-03-21T12:57:40.156Z,18.40
2023-03-21T13:00:34.987Z,18.50
2023-03-21T13:03:04.636Z,18.70
2023-03-21T13:05:48.850Z,18.80
2023-03-21T13:08:52.306Z,18.80
2023-03-21T13:11:24.125Z,19.00
2023-03-21T13:13:57.364Z,18.90
2023-03-21T13:16:33.726Z,18.90
2023-03-21T13:19:16.280Z,18.80
2023-03-21T13:22:14.573Z,18.70
2023-03-21T13:24:49.749Z,18.70
2023-03-21T13:27:29.122Z,18.90
2023-03-21T13:30:09.038Z,19.10
2023-03-21T13:32:40.990Z,19.40
2023-03-21T13:35:46.629Z,20.20
2023-03-21T13:38:28.512Z,21.00
2023-03-21T13:41:37.538Z,22.10
2023-03-21T13:44:05.471Z,23.10
2023-03-21T13:46:53.895Z,24.10
2023-03-21T13:49:38.636Z,24.10
2023-03-21T13:52:12.466Z,23.30
2023-03-21T13:54:57.492Z,22.90
2023-03-21T13:57:29.767Z,22.70
2023-03-21T14:00:30.864Z,22.40
2023-03-21T14:03:08.997Z,22.00
2023-03-21T14:05:39.569Z,22.00
2023-03-21T14:08:15.733Z,21.90
2023-03-21T14:10:57.538Z,22.00
2023-03-21T14:13:28.555Z,21.70
2023-03-21T14:16:13.178Z,21.60
2023-03-21T14:19:07.319Z,21.20
2023-03-21T14:21:36.465Z,20.70
2023-03-21T14:24:04.280Z,20.50
2023-03-21T14:26:40.752Z,20.20
2023-03-21T14:29:25.114Z,19.90
2023-03-21T14:31:55.989Z,19.60
2023-03-21T14:34:27.506Z,19.30
2023-03-21T14:36:58.634Z,19.00
2023-03-21T14:39:33.544Z,18.90
2023-03-21T14:42:12.308Z,18.70
2023-03-21T14:44:57.867Z,18.70
2023-03-21T14:47:29.316Z,18.70
2023-03-21T14:49:58.624Z,18.90
2023-03-21T14:52:34.565Z,18.90
2023-03-21T14:55:06.663Z,18.80
2023-03-21T14:57:34.668Z,18.80
2023-03-21T15:00:12.709Z,18.70
2023-03-21T15:02:43.509Z,18.60
2023-03-21T15:05:21.047Z,18.40
2023-03-21T15:08:13.386Z,18.10
2023-03-21T15:10:42.491Z,17.90
2023-03-21T15:13:20.189Z,17.60
2023-03-21T15:15:48.784Z,17.40
2023-03-21T15:18:23.806Z,17.30
2023-03-21T15:20:53.367Z,17.10
2023-03-21T15:23:28.841Z,17.00
2023-03-21T15:25:56.982Z,16.80
2023-03-21T15:28:26.739Z,16.60
2023-03-21T15:30:57.111Z,16.50
2023-03-21T15:33:26.454Z,16.40
2023-03-21T15:36:00.271Z,16.30
2023-03-21T15:38:37.588Z,16.20
2023-03-21T15:41:20.744Z,16.20
2023-03-21T15:44:10.513Z,16.10
2023-03-21T15:46:45.609Z,16.00
2023-03-21T15:49:16.578Z,16.00
2023-03-21T15:51:53.191Z,15.90
2023-03-21T15:54:31.496Z,15.80
2023-03-21T15:57:10.028Z,15.70
2023-03-21T15:59:42.171Z,15.70
2023-03-21T16:02:22.742Z,15.70
2023-03-21T16:05:23.186Z,15.70
2023-03-21T16:07:51.461Z,15.70
2023-03-21T16:10:31.934Z,15.70
2023-03-21T16:13:01.356Z,15.60
2023-03-21T16:15:29.647Z,15.60
2023-03-21T16:18:00.210Z,15.60
2023-03-21T16:20:33.198Z,15.60
2023-03-21T16:23:01.814Z,15.60
2023-03-21T16:25:31.148Z,15.60
2023-03-21T16:27:59.666Z,15.50
2023-03-21T16:30:27.993Z,15.40
2023-03-21T16:32:57.030Z,15.30
2023-03-21T16:35:26.778Z,15.20
2023-03-21T16:37:54.789Z,15.10
2023-03-21T16:40:41.476Z,15.20
2023-03-21T16:43:10.011Z,15.20
2023-03-21T16:45:38.478Z,15.20
2023-03-21T16:48:09.229Z,15.10
2023-03-21T16:50:42.756Z,15.10
2023-03-21T16:53:10.858Z,15.10
2023-03-21T16:55:39.267Z,15.10
2023-03-21T16:58:07.349Z,15.10
2023-03-21T17:00:35.607Z,15.20
2023-03-21T17:03:14.172Z,15.20
2023-03-21T17:05:42.261Z,15.10
2023-03-21T17:08:19.089Z,15.10
2023-03-21T17:10:47.672Z,15.10
2023-03-21T17:13:15.641Z,15.00
2023-03-21T17:15:43.845Z,14.90
2023-03-21T17:18:12.557Z,14.80
2023-03-21T17:20:42.016Z,14.80
2023-03-21T17:23:10.782Z,14.70
2023-03-21T17:25:38.756Z,14.70
2023-03-21T17:28:06.737Z,14.70
2023-03-21T17:30:39.575Z,14.60
2023-03-21T17:33:07.982Z,14.60
2023-03-21T17:35:35.810Z,14.60
2023-03-21T17:38:04.507Z,14.60
2023-03-21T17:40:33.340Z,14.50
2023-03-21T17:43:01.937Z,14.50
2023-03-21T17:45:30.221Z,14.40
2023-03-21T17:47:58.308Z,14.30
2023-03-21T17:50:34.677Z,14.30
2023-03-21T17:53:02.768Z,14.30
2023-03-21T17:55:31.012Z,14.20
2023-03-21T17:57:58.903Z,14.20
2023-03-21T18:00:29.596Z,14.10
2023-03-21T18:02:58.450Z,14.00
2023-03-21T18:05:27.867Z,14.00
2023-03-21T18:08:10.937Z,13.90
2023-03-21T18:10:40.892Z,13.80
2023-03-21T18:13:09.437Z,13.80
2023-03-21T18:15:38.268Z,13.80
2023-03-21T18:18:07.014Z,13.80
2023-03-21T18:20:53.057Z,13.80
2023-03-21T18:23:22.397Z,13.70
2023-03-21T18:25:53.017Z,13.80
2023-03-21T18:28:22.220Z,13.80
2023-03-21T18:33:41.345Z,13.70
2023-03-21T18:36:10.543Z,13.60
2023-03-21T18:38:39.465Z,13.50
2023-03-21T18:41:09.175Z,13.50
2023-03-21T18:44:01.713Z,13.50
2023-03-21T18:46:26.941Z,13.50
2023-03-21T18:48:55.565Z,13.50
2023-03-21T18:51:23.999Z,13.50
2023-03-21T18:53:52.002Z,13.40
2023-03-21T18:57:13.260Z,13.50
2023-03-21T18:59:08.991Z,13.50
2023-03-21T19:01:36.928Z,13.40
2023-03-21T19:04:22.900Z,13.40
2023-03-21T19:06:53.607Z,13.40
2023-03-21T19:09:29.371Z,13.30
2023-03-21T19:12:00.251Z,13.30
2023-03-21T19:14:28.654Z,13.20
2023-03-21T19:17:50.804Z,13.20
2023-03-21T19:19:48.366Z,13.10
2023-03-21T19:22:17.011Z,13.10
2023-03-21T19:24:44.957Z,13.00
2023-03-21T19:27:13.762Z,13.00
2023-03-21T19:29:42.568Z,12.90
2023-03-21T19:32:10.406Z,12.90
2023-03-21T19:34:38.646Z,12.80
2023-03-21T19:37:06.701Z,12.80
2023-03-21T19:39:34.770Z,12.90
2023-03-21T19:42:15.547Z,12.80
2023-03-21T19:44:44.854Z,12.80
2023-03-21T19:47:12.878Z,12.80
2023-03-21T19:50:37.485Z,12.80
2023-03-21T19:52:29.740Z,12.70
2023-03-21T19:55:05.350Z,12.70
2023-03-21T19:57:34.912Z,12.70
2023-03-21T20:00:03.254Z,12.70
2023-03-21T20:02:35.975Z,12.60
2023-03-21T20:05:07.120Z,12.60
2023-03-21T20:07:35.285Z,12.60
2023-03-21T20:10:03.254Z,12.60
2023-03-21T20:12:33.056Z,12.50
2023-03-21T20:15:15.756Z,12.50
2023-03-21T20:17:46.019Z,12.50
2023-03-21T20:20:17.541Z,12.40
2023-03-21T20:25:40.991Z,12.30
2023-03-21T20:28:24.619Z,12.20
2023-03-21T20:31:01.156Z,12.20
2023-03-21T20:33:29.951Z,12.20
2023-03-21T20:38:54.210Z,12.20
2023-03-21T20:41:22.448Z,12.30
2023-03-21T20:46:38.709Z,12.30
2023-03-21T20:49:09.112Z,12.30
2023-03-21T20:54:25.473Z,12.30
2023-03-21T20:56:53.456Z,12.30
2023-03-21T20:59:27.162Z,12.30
2023-03-21T21:01:58.320Z,12.30
2023-03-21T21:04:52.828Z,12.30
2023-03-21T21:07:21.858Z,12.30
2023-03-21T21:09:50.628Z,12.40
2023-03-21T21:12:23.530Z,12.30
2023-03-21T21:14:51.767Z,12.30
2023-03-21T21:17:37.128Z,12.30
2023-03-21T21:20:17.242Z,12.30
2023-03-21T21:23:00.168Z,12.30
2023-03-21T21:25:32.159Z,12.20
2023-03-21T21:28:02.184Z,12.20
2023-03-21T21:30:34.374Z,12.20
2023-03-21T21:33:02.609Z,12.20
2023-03-21T21:35:30.606Z,12.20
2023-03-21T21:37:58.695Z,12.20
2023-03-21T21:40:26.436Z,12.20
2023-03-21T21:42:54.670Z,12.10
2023-03-21T21:45:22.852Z,12.10
2023-03-21T21:47:51.334Z,12.10
2023-03-21T21:50:22.037Z,12.10
2023-03-21T21:52:53.110Z,12.10
2023-03-21T21:55:21.707Z,12.10
2023-03-21T21:57:51.076Z,12.00
2023-03-21T22:00:22.312Z,12.00
2023-03-21T22:02:50.908Z,12.00
2023-03-21T22:05:21.336Z,12.00
2023-03-21T22:07:52.885Z,12.00
2023-03-21T22:10:22.541Z,12.00
2023-03-21T22:12:50.637Z,11.90
2023-03-21T22:15:19.680Z,11.90
2023-03-21T22:17:47.598Z,11.90
2023-03-21T22:20:17.448Z,11.90
2023-03-21T22:22:46.275Z,11.80
2023-03-21T22:25:16.681Z,11.80
2023-03-21T22:27:44.844Z,11.80
2023-03-21T22:30:14.651Z,11.80
2023-03-21T22:32:42.765Z,11.70
2023-03-21T22:35:11.467Z,11.70
2023-03-21T22:37:42.135Z,11.70
2023-03-21T22:40:14.111Z,11.70
2023-03-21T22:42:43.364Z,11.60
2023-03-21T22:45:14.107Z,11.60
2023-03-21T22:47:42.213Z,11.60
2023-03-21T22:50:10.493Z,11.50
2023-03-21T22:52:38.575Z,11.50
2023-03-21T22:55:07.349Z,11.50
2023-03-21T22:57:35.556Z,11.40
2023-03-21T23:00:05.193Z,11.40
2023-03-21T23:02:33.455Z,11.40
2023-03-21T23:05:01.327Z,11.40
2023-03-21T23:07:29.377Z,11.40
2023-03-21T23:09:57.691Z,11.40
2023-03-21T23:12:25.767Z,11.30
2023-03-21T23:14:53.780Z,11.30
2023-03-21T23:17:21.762Z,11.30
2023-03-21T23:19:49.638Z,11.30
2023-03-21T23:22:17.557Z,11.20
2023-03-21T23:24:45.731Z,11.20
2023-03-21T23:27:14.746Z,11.20
2023-03-21T23:29:44.491Z,11.10
2023-03-21T23:32:12.458Z,11.10
2023-03-21T23:34:40.371Z,11.10
2023-03-21T23:37:08.771Z,11.10
2023-03-21T23:39:36.562Z,11.10
2023-03-21T23:42:04.547Z,11.10
2023-03-21T23:44:33.018Z,11.00
2023-03-21T23:47:01.476Z,11.00
2023-03-21T23:49:38.175Z,11.00
2023-03-21T23:52:06.808Z,11.00
2023-03-21T23:54:34.722Z,11.00
2023-03-21T23:57:02.876Z,10.90
2023-03-21T23:59:30.951Z,10.90
